Time;durP1;ratioP1;P1;durP2;ratioP2;P2;SDS_P1;SDS_P2;PMS_P1;PMS_P2;Temp;Humidity;BMP_temperature;BMP_pressure;BME280_temperature;BME280_humidity;BME280_pressure;Samples;Min_cycle;Max_cycle;Signal;HPM_P1;HPM_P2
2023/10/13 00:00:37;;;;;;;22.50;12.40;;;;;;;;;;5049807;27;100711;-78
2023/10/13 00:03:05;;;;;;;29.08;12.18;;;;;;;;;;5051577;27;99930;-76
2023/10/13 00:05:33;;;;;;;22.10;12.68;;;;;;;;;;5050062;27;99087;-76
2023/10/13 00:08:03;;;;;;;24.08;13.68;;;;;;;;;;5057896;27;100080;-77
2023/10/13 00:10:30;;;;;;;26.67;14.18;;;;;;;;;;5050235;27;100346;-77
2023/10/13 00:15:56;;;;;;;24.73;13.02;;;;;;;;;;5051438;27;100319;-77
2023/10/13 00:18:27;;;;;;;23.92;13.75;;;;;;;;;;5053188;27;100031;-76
2023/10/13 00:20:56;;;;;;;25.42;12.95;;;;;;;;;;5052866;27;99644;-77
2023/10/13 00:23:23;;;;;;;28.15;14.55;;;;;;;;;;5051384;27;99749;-78
2023/10/13 00:25:50;;;;;;;23.75;12.98;;;;;;;;;;5051547;27;99483;-75
2023/10/13 00:28:24;;;;;;;33.00;14.95;;;;;;;;;;5054747;27;100159;-77
2023/10/13 00:30:52;;;;;;;33.58;13.90;;;;;;;;;;5052427;27;99033;-77
2023/10/13 00:33:22;;;;;;;24.90;14.23;;;;;;;;;;5048723;27;100133;-76
2023/10/13 00:35:51;;;;;;;29.45;13.80;;;;;;;;;;5054502;27;100351;-76
2023/10/13 00:38:19;;;;;;;25.70;13.82;;;;;;;;;;5049862;27;98316;-76
2023/10/13 00:40:55;;;;;;;27.67;12.82;;;;;;;;;;5049154;27;98978;-77
2023/10/13 00:46:06;;;;;;;29.55;12.73;;;;;;;;;;5049501;27;99764;-75
2023/10/13 00:48:34;;;;;;;25.58;13.45;;;;;;;;;;5054358;27;101472;-76
2023/10/13 00:51:02;;;;;;;28.42;13.15;;;;;;;;;;5054656;27;100290;-74
2023/10/13 00:53:33;;;;;;;26.05;12.95;;;;;;;;;;5053455;27;99133;-77
2023/10/13 00:56:19;;;;;;;19.60;11.65;;;;;;;;;;5048650;27;101514;-77
2023/10/13 00:58:52;;;;;;;21.40;12.27;;;;;;;;;;5055560;27;99783;-76
2023/10/13 01:01:28;;;;;;;30.90;12.95;;;;;;;;;;5048035;27;100034;-77
2023/10/13 01:03:55;;;;;;;30.27;14.40;;;;;;;;;;5051346;27;100082;-76
2023/10/13 01:06:25;;;;;;;29.95;13.32;;;;;;;;;;5047884;27;99979;-76
2023/10/13 01:09:17;;;;;;;24.33;13.40;;;;;;;;;;5050885;27;99520;-76
2023/10/13 01:11:51;;;;;;;31.90;13.05;;;;;;;;;;5053956;27;100166;-76
2023/10/13 01:14:20;;;;;;;27.17;12.23;;;;;;;;;;5044983;27;98327;-75
2023/10/13 01:16:47;;;;;;;27.13;13.77;;;;;;;;;;5052003;27;99668;-77
2023/10/13 01:19:17;;;;;;;21.65;13.15;;;;;;;;;;5052369;27;98947;-77
2023/10/13 01:21:44;;;;;;;24.83;13.70;;;;;;;;;;5052863;27;100085;-75
2023/10/13 01:24:13;;;;;;;25.13;14.85;;;;;;;;;;5054542;27;99133;-77
2023/10/13 01:26:41;;;;;;;27.80;14.05;;;;;;;;;;5046868;27;98310;-76
2023/10/13 01:29:11;;;;;;;22.30;13.75;;;;;;;;;;5050542;27;100588;-76
2023/10/13 01:31:45;;;;;;;31.80;14.65;;;;;;;;;;5049031;27;99480;-76
2023/10/13 01:34:12;;;;;;;24.90;15.05;;;;;;;;;;5049548;27;99094;-77
2023/10/13 01:36:40;;;;;;;26.77;14.13;;;;;;;;;;5051981;27;100741;-76
2023/10/13 01:39:10;;;;;;;25.70;13.80;;;;;;;;;;5056132;27;98937;-77
2023/10/13 01:41:39;;;;;;;27.55;15.48;;;;;;;;;;5057571;27;98441;-75
2023/10/13 01:44:05;;;;;;;20.73;13.65;;;;;;;;;;5053610;27;100141;-76
2023/10/13 01:46:32;;;;;;;28.05;15.13;;;;;;;;;;5053158;27;98943;-77
2023/10/13 01:48:59;;;;;;;27.05;14.93;;;;;;;;;;5054170;27;99722;-77
2023/10/13 01:51:27;;;;;;;25.50;15.02;;;;;;;;;;5053513;27;100695;-77
2023/10/13 01:53:56;;;;;;;22.48;14.52;;;;;;;;;;5059254;27;99647;-76
2023/10/13 01:56:23;;;;;;;25.42;14.80;;;;;;;;;;5057040;27;100764;-77
2023/10/13 01:58:50;;;;;;;28.30;14.88;;;;;;;;;;5050471;27;101988;-76
2023/10/13 02:01:26;;;;;;;22.55;14.85;;;;;;;;;;5054960;27;99922;-75
2023/10/13 02:04:01;;;;;;;31.90;15.98;;;;;;;;;;5085959;27;101068;-77
2023/10/13 02:06:32;;;;;;;26.33;14.90;;;;;;;;;;5053614;27;98259;-76
2023/10/13 02:09:05;;;;;;;23.17;14.25;;;;;;;;;;5052130;27;99556;-77
2023/10/13 02:11:32;;;;;;;20.77;13.77;;;;;;;;;;5054514;27;99670;-77
2023/10/13 02:14:00;;;;;;;23.85;12.95;;;;;;;;;;5055310;27;100030;-77
2023/10/13 02:16:27;;;;;;;21.42;13.20;;;;;;;;;;5051856;27;100120;-77
2023/10/13 02:18:53;;;;;;;20.05;12.85;;;;;;;;;;5051120;27;99660;-77
2023/10/13 02:21:20;;;;;;;16.95;12.50;;;;;;;;;;5056590;27;100264;-77
2023/10/13 02:23:59;;;;;;;17.67;12.60;;;;;;;;;;5054829;27;99879;-75
2023/10/13 02:26:38;;;;;;;22.20;11.70;;;;;;;;;;5086603;27;102470;-76
2023/10/13 02:29:08;;;;;;;26.13;11.45;;;;;;;;;;5055934;27;100173;-76
2023/10/13 02:31:35;;;;;;;19.25;12.68;;;;;;;;;;5050779;27;99930;-76
2023/10/13 02:34:07;;;;;;;33.20;12.82;;;;;;;;;;5050879;27;98291;-77
2023/10/13 02:36:46;;;;;;;17.67;11.52;;;;;;;;;;5060844;27;99964;-76
2023/10/13 02:39:13;;;;;;;18.48;11.38;;;;;;;;;;5052355;27;99825;-76
2023/10/13 02:41:41;;;;;;;18.02;10.90;;;;;;;;;;5057728;27;99935;-77
2023/10/13 02:44:19;;;;;;;20.08;11.30;;;;;;;;;;5054038;27;99004;-75
2023/10/13 02:46:50;;;;;;;24.83;12.02;;;;;;;;;;5053541;27;98936;-75
2023/10/13 02:49:19;;;;;;;26.40;11.73;;;;;;;;;;5060540;27;99073;-75
2023/10/13 02:51:46;;;;;;;19.75;11.45;;;;;;;;;;5053483;27;99185;-76
2023/10/13 02:54:18;;;;;;;17.13;10.55;;;;;;;;;;5057212;27;98683;-76
2023/10/13 02:56:57;;;;;;;19.55;10.15;;;;;;;;;;5056269;27;99500;-75
2023/10/13 02:59:40;;;;;;;19.10;10.38;;;;;;;;;;5054276;27;99733;-76
2023/10/13 03:02:27;;;;;;;17.33;10.13;;;;;;;;;;5056790;27;98801;-77
2023/10/13 03:05:04;;;;;;;18.25;10.95;;;;;;;;;;5050841;27;100422;-77
2023/10/13 03:07:30;;;;;;;12.27;9.88;;;;;;;;;;5049557;27;101673;-75
2023/10/13 03:09:59;;;;;;;21.10;10.73;;;;;;;;;;5056446;27;100165;-77
2023/10/13 03:12:33;;;;;;;15.52;10.13;;;;;;;;;;5055480;27;99859;-77
2023/10/13 03:15:18;;;;;;;20.05;11.15;;;;;;;;;;5054400;27;99812;-74
2023/10/13 03:17:45;;;;;;;18.98;9.63;;;;;;;;;;5053263;27;99416;-76
2023/10/13 03:20:14;;;;;;;20.90;10.52;;;;;;;;;;5051922;27;99771;-76
2023/10/13 03:22:44;;;;;;;22.00;11.27;;;;;;;;;;5050694;27;100415;-76
2023/10/13 03:25:23;;;;;;;17.70;11.00;;;;;;;;;;5051433;27;99434;-77
2023/10/13 03:30:20;;;;;;;19.77;12.15;;;;;;;;;;5055062;27;99998;-76
2023/10/13 03:32:49;;;;;;;19.08;9.98;;;;;;;;;;5056484;27;99455;-73
2023/10/13 03:35:24;;;;;;;22.33;10.13;;;;;;;;;;5055886;27;100649;-76
2023/10/13 03:37:51;;;;;;;18.88;11.00;;;;;;;;;;5053476;27;99978;-75
2023/10/13 03:45:43;;;;;;;24.15;9.80;;;;;;;;;;5049511;27;99900;-75
2023/10/13 03:48:21;;;;;;;20.92;11.00;;;;;;;;;;5053856;27;99911;-76
2023/10/13 03:50:57;;;;;;;19.50;10.30;;;;;;;;;;5052539;27;99660;-75
2023/10/13 03:53:25;;;;;;;23.55;10.40;;;;;;;;;;5052433;27;99774;-76
2023/10/13 03:56:07;;;;;;;19.90;10.20;;;;;;;;;;5055135;27;100234;-74
2023/10/13 03:58:35;;;;;;;16.30;9.63;;;;;;;;;;5052696;27;98870;-75
2023/10/13 04:01:03;;;;;;;22.70;9.65;;;;;;;;;;5052246;27;99698;-75
2023/10/13 04:03:36;;;;;;;19.70;9.73;;;;;;;;;;5052758;27;98602;-75
2023/10/13 04:06:16;;;;;;;20.08;9.60;;;;;;;;;;5049469;27;99594;-75
2023/10/13 04:11:52;;;;;;;19.58;9.88;;;;;;;;;;5049614;27;99955;-76
2023/10/13 04:16:54;;;;;;;17.27;8.48;;;;;;;;;;5053001;27;100028;-75
2023/10/13 04:19:24;;;;;;;18.25;8.98;;;;;;;;;;5058374;27;99030;-76
2023/10/13 04:21:58;;;;;;;16.85;9.15;;;;;;;;;;5055352;27;99989;-75
2023/10/13 04:24:59;;;;;;;14.75;8.90;;;;;;;;;;5052013;27;99783;-75
2023/10/13 04:27:39;;;;;;;16.17;8.35;;;;;;;;;;5052797;27;99318;-73
2023/10/13 04:32:41;;;;;;;15.30;9.63;;;;;;;;;;5052099;27;98420;-76
2023/10/13 04:38:01;;;;;;;15.45;9.48;;;;;;;;;;5052117;27;100188;-74
2023/10/13 04:40:35;;;;;;;21.83;9.15;;;;;;;;;;5048532;27;99782;-74
2023/10/13 04:43:17;;;;;;;12.80;8.45;;;;;;;;;;5060388;27;99384;-74
2023/10/13 04:45:55;;;;;;;13.82;8.35;;;;;;;;;;5052662;27;99153;-74
2023/10/13 04:50:58;;;;;;;16.52;9.18;;;;;;;;;;5052904;27;100460;-75
2023/10/13 05:45:16;;;;;;;10.43;7.03;;;;;;;;;;5052715;27;98368;-74
2023/10/13 06:28:41;;;;;;;16.33;5.22;;;;;;;;;;5069779;27;98287;-77
2023/10/13 06:31:14;;;;;;;14.65;5.63;;;;;;;;;;5060328;27;99524;-76
2023/10/13 06:33:47;;;;;;;;;;;;;;;;;;5056799;27;101479;-75
2023/10/13 06:36:13;;;;;;;6.05;4.28;;;;;;;;;;5048314;27;123144;-77
2023/10/13 06:38:39;;;;;;;15.85;5.90;;;;;;;;;;5049204;27;99295;-76
2023/10/13 06:41:06;;;;;;;11.27;5.85;;;;;;;;;;5052784;27;99947;-76
2023/10/13 06:43:39;;;;;;;21.38;6.57;;;;;;;;;;5048330;27;100330;-77
2023/10/13 06:46:07;;;;;;;12.40;5.53;;;;;;;;;;5063501;27;99071;-76
2023/10/13 06:48:34;;;;;;;10.63;5.78;;;;;;;;;;5069079;27;98306;-76
2023/10/13 06:51:06;;;;;;;9.23;6.20;;;;;;;;;;5069511;27;99540;-76
2023/10/13 06:53:36;;;;;;;12.05;6.25;;;;;;;;;;5067500;27;99149;-76
2023/10/13 06:56:06;;;;;;;7.40;5.72;;;;;;;;;;5068026;27;98237;-76
2023/10/13 06:58:33;;;;;;;11.32;6.50;;;;;;;;;;5068918;27;99705;-76
2023/10/13 07:00:59;;;;;;;9.65;7.00;;;;;;;;;;5069106;27;100013;-75
2023/10/13 07:03:26;;;;;;;13.10;6.82;;;;;;;;;;5069921;27;99212;-75
2023/10/13 07:05:53;;;;;;;12.50;7.85;;;;;;;;;;5063253;27;99129;-76
2023/10/13 07:08:20;;;;;;;19.10;7.78;;;;;;;;;;5068869;27;98233;-76
2023/10/13 07:10:51;;;;;;;14.15;8.20;;;;;;;;;;5069425;27;99402;-76
2023/10/13 07:13:19;;;;;;;19.55;8.77;;;;;;;;;;5067876;27;99947;-77
2023/10/13 07:15:46;;;;;;;12.65;8.95;;;;;;;;;;5063792;27;98851;-78
2023/10/13 07:18:13;;;;;;;12.70;8.25;;;;;;;;;;5068158;27;98473;-77
2023/10/13 07:20:46;;;;;;;16.20;9.82;;;;;;;;;;5063997;27;100099;-76
2023/10/13 07:23:17;;;;;;;15.88;9.35;;;;;;;;;;5049862;27;98698;-76
2023/10/13 07:26:04;;;;;;;13.27;8.75;;;;;;;;;;5051397;27;99606;-77
2023/10/13 07:28:31;;;;;;;23.17;10.65;;;;;;;;;;5053265;27;98549;-75
2023/10/13 07:33:27;;;;;;;10.38;9.13;;;;;;;;;;5048310;27;100033;-75
2023/10/13 07:36:15;;;;;;;13.80;9.70;;;;;;;;;;5051852;27;98111;-76
2023/10/13 07:38:49;;;;;;;13.38;8.25;;;;;;;;;;5048428;27;99764;-75
2023/10/13 07:41:36;;;;;;;17.20;8.32;;;;;;;;;;5049810;27;100228;-77
2023/10/13 07:44:04;;;;;;;13.27;8.07;;;;;;;;;;5066302;27;99325;-74
2023/10/13 07:46:33;;;;;;;14.98;7.25;;;;;;;;;;5057096;27;99387;-76
2023/10/13 07:49:11;;;;;;;10.25;6.93;;;;;;;;;;5057891;27;98757;-75
2023/10/13 07:51:57;;;;;;;10.80;7.45;;;;;;;;;;5059316;27;99579;-75
2023/10/13 07:54:24;;;;;;;11.95;6.75;;;;;;;;;;5066358;27;98270;-76
2023/10/13 07:56:50;;;;;;;9.13;6.18;;;;;;;;;;5067505;27;98331;-74
2023/10/13 07:59:22;;;;;;;12.07;6.07;;;;;;;;;;5067771;27;99733;-76
2023/10/13 08:02:11;;;;;;;23.90;5.82;;;;;;;;;;5067362;27;99150;-75
2023/10/13 08:04:35;;;;;;;16.23;5.35;;;;;;;;;;5063189;27;98849;-75
2023/10/13 08:07:11;;;;;;;10.98;6.40;;;;;;;;;;5068070;27;99320;-77
2023/10/13 08:09:43;;;;;;;11.85;5.43;;;;;;;;;;5070020;27;98888;-75
2023/10/13 08:12:12;;;;;;;22.23;5.45;;;;;;;;;;5056627;27;99034;-75
2023/10/13 08:14:40;;;;;;;11.32;6.30;;;;;;;;;;5046830;27;100475;-75
2023/10/13 08:17:09;;;;;;;14.15;5.65;;;;;;;;;;5046477;27;98415;-75
2023/10/13 08:19:44;;;;;;;12.50;5.35;;;;;;;;;;5047326;27;99912;-75
2023/10/13 08:35:09;;;;;;;10.00;4.82;;;;;;;;;;5045358;27;98995;-76
2023/10/13 08:37:46;;;;;;;7.05;4.10;;;;;;;;;;5055908;27;98635;-75
2023/10/13 08:48:08;;;;;;;9.55;4.22;;;;;;;;;;5054696;27;99265;-76
2023/10/13 08:56:05;;;;;;;14.05;4.20;;;;;;;;;;5057811;27;100086;-76
2023/10/13 09:07:00;;;;;;;15.52;4.25;;;;;;;;;;5057194;27;98580;-75
2023/10/13 09:09:34;;;;;;;16.83;4.50;;;;;;;;;;5063431;27;99794;-78
2023/10/13 09:12:13;;;;;;;11.30;4.13;;;;;;;;;;5059706;27;100173;-76
2023/10/13 09:14:56;;;;;;;14.38;4.05;;;;;;;;;;5056238;27;98447;-76
2023/10/13 09:17:35;;;;;;;12.60;4.65;;;;;;;;;;5063018;27;98663;-77
2023/10/13 09:25:37;;;;;;;10.20;4.55;;;;;;;;;;5058616;27;99089;-77
2023/10/13 09:28:14;;;;;;;7.68;4.25;;;;;;;;;;5057994;27;99652;-77
2023/10/13 09:30:44;;;;;;;15.77;5.00;;;;;;;;;;5058558;27;100368;-76
2023/10/13 09:33:20;;;;;;;17.33;4.60;;;;;;;;;;5060672;27;99213;-75
2023/10/13 09:35:49;;;;;;;11.40;4.30;;;;;;;;;;5064557;27;98237;-76
2023/10/13 09:38:15;;;;;;;10.68;3.90;;;;;;;;;;5057302;27;99486;-77
2023/10/13 09:40:57;;;;;;;8.75;3.92;;;;;;;;;;5051191;27;100058;-76
2023/10/13 09:43:25;;;;;;;14.05;5.22;;;;;;;;;;5048309;27;98110;-75
2023/10/13 09:46:02;;;;;;;12.10;4.70;;;;;;;;;;5059182;27;99255;-75
2023/10/13 09:48:40;;;;;;;19.80;4.35;;;;;;;;;;5047591;27;98584;-78
2023/10/13 09:51:13;;;;;;;15.38;4.07;;;;;;;;;;5048131;27;100146;-76
2023/10/13 09:53:41;;;;;;;14.80;4.10;;;;;;;;;;5049396;27;100423;-78
2023/10/13 09:56:32;;;;;;;15.50;5.82;;;;;;;;;;5055885;27;100357;-75
2023/10/13 09:59:00;;;;;;;15.48;4.13;;;;;;;;;;5050428;27;99369;-76
2023/10/13 10:01:33;;;;;;;16.85;4.60;;;;;;;;;;5053357;27;100143;-76
2023/10/13 10:04:14;;;;;;;12.43;4.07;;;;;;;;;;5051981;27;98133;-76
2023/10/13 10:06:49;;;;;;;7.70;3.88;;;;;;;;;;5058790;27;99844;-76
2023/10/13 10:09:21;;;;;;;14.68;4.32;;;;;;;;;;5049009;27;99497;-76
2023/10/13 10:11:56;;;;;;;15.80;5.18;;;;;;;;;;5051237;27;99431;-78
2023/10/13 10:14:42;;;;;;;8.90;4.88;;;;;;;;;;5063088;27;100676;-74
2023/10/13 10:17:08;;;;;;;12.80;4.43;;;;;;;;;;5047811;27;100150;-77
2023/10/13 10:19:45;;;;;;;13.90;4.40;;;;;;;;;;5055515;27;99351;-77
2023/10/13 10:22:18;;;;;;;10.73;4.18;;;;;;;;;;5057472;27;99872;-77
2023/10/13 10:24:45;;;;;;;;;;;;;;;;;;5069197;27;98556;-76
2023/10/13 10:27:15;;;;;;;14.25;4.57;;;;;;;;;;5070429;27;120974;-77
2023/10/13 10:29:54;;;;;;;14.50;4.28;;;;;;;;;;5069026;27;98454;-78
2023/10/13 10:32:20;;;;;;;10.63;4.32;;;;;;;;;;5061300;27;99496;-77
2023/10/13 10:34:47;;;;;;;16.77;5.22;;;;;;;;;;5067656;27;100418;-78
2023/10/13 10:37:14;;;;;;;15.43;5.15;;;;;;;;;;5068729;27;98521;-76
2023/10/13 10:39:46;;;;;;;18.73;6.20;;;;;;;;;;5081003;27;98667;-77
2023/10/13 10:42:23;;;;;;;18.58;5.22;;;;;;;;;;5073446;27;100000;-77
2023/10/13 10:44:55;;;;;;;14.88;5.03;;;;;;;;;;5066706;27;98297;-76
2023/10/13 10:47:30;;;;;;;14.33;4.97;;;;;;;;;;5069161;27;99705;-77
2023/10/13 10:50:00;;;;;;;21.42;5.20;;;;;;;;;;5052960;27;100164;-77
2023/10/13 10:52:27;;;;;;;13.63;4.60;;;;;;;;;;5059554;27;100017;-75
2023/10/13 10:55:00;;;;;;;9.95;4.57;;;;;;;;;;5067393;27;98851;-74
2023/10/13 10:57:29;;;;;;;9.70;4.28;;;;;;;;;;5067702;27;98045;-77
2023/10/13 11:00:14;;;;;;;12.60;4.07;;;;;;;;;;5057343;27;100170;-78
2023/10/13 11:02:40;;;;;;;9.85;4.60;;;;;;;;;;5045946;27;100145;-77
2023/10/13 11:05:09;;;;;;;13.65;4.38;;;;;;;;;;5051003;27;99555;-76
2023/10/13 11:07:36;;;;;;;9.35;4.93;;;;;;;;;;5049169;27;99690;-77
2023/10/13 11:10:26;;;;;;;11.35;4.32;;;;;;;;;;5046557;27;100188;-78
2023/10/13 11:12:55;;;;;;;21.67;5.40;;;;;;;;;;5060620;27;98353;-77
2023/10/13 11:15:22;;;;;;;20.55;4.38;;;;;;;;;;5057000;27;99518;-75
2023/10/13 11:17:58;;;;;;;8.48;4.28;;;;;;;;;;5081728;27;98201;-76
2023/10/13 11:20:33;;;;;;;12.88;4.72;;;;;;;;;;5061592;27;98179;-79
2023/10/13 11:23:04;;;;;;;15.27;4.93;;;;;;;;;;5058989;27;99308;-78
2023/10/13 11:25:37;;;;;;;12.45;4.78;;;;;;;;;;5057041;27;97996;-76
2023/10/13 11:28:28;;;;;;;12.93;4.95;;;;;;;;;;5052188;27;99661;-76
2023/10/13 11:30:58;;;;;;;13.00;4.88;;;;;;;;;;5051658;27;100059;-77
2023/10/13 11:33:29;;;;;;;9.50;4.13;;;;;;;;;;5054006;27;99216;-78
2023/10/13 11:35:56;;;;;;;19.27;5.18;;;;;;;;;;5071647;27;98698;-76
2023/10/13 11:38:27;;;;;;;16.75;4.25;;;;;;;;;;5069023;27;98460;-77
2023/10/13 11:51:44;;;;;;;10.18;4.45;;;;;;;;;;5048343;27;99111;-77
2023/10/13 11:54:15;;;;;;;14.00;4.30;;;;;;;;;;5047952;27;98240;-77
2023/10/13 11:56:42;;;;;;;17.70;4.80;;;;;;;;;;5051309;27;99129;-77
2023/10/13 11:59:17;;;;;;;12.13;4.10;;;;;;;;;;5058769;27;98139;-77
2023/10/13 12:04:54;;;;;;;13.85;4.43;;;;;;;;;;5038948;27;99907;-78
2023/10/13 12:07:26;;;;;;;7.53;4.90;;;;;;;;;;5048279;27;98225;-77
2023/10/13 12:12:23;;;;;;;14.75;5.43;;;;;;;;;;5067486;27;99656;-77
2023/10/13 12:14:58;;;;;;;17.13;4.47;;;;;;;;;;5045205;27;99618;-75
2023/10/13 12:17:34;;;;;;;16.05;4.93;;;;;;;;;;5053607;27;98996;-77
2023/10/13 12:20:05;;;;;;;14.50;4.72;;;;;;;;;;5052667;27;98814;-76
2023/10/13 12:22:35;;;;;;;11.45;4.75;;;;;;;;;;5058746;27;98543;-76
2023/10/13 12:25:05;;;;;;;15.05;4.68;;;;;;;;;;5067852;27;99102;-77
2023/10/13 12:27:56;;;;;;;15.00;5.32;;;;;;;;;;5058786;27;98284;-77
2023/10/13 12:30:48;;;;;;;10.73;4.10;;;;;;;;;;5075794;27;99442;-74
2023/10/13 12:33:36;;;;;;;8.77;4.55;;;;;;;;;;5062926;27;99944;-77
2023/10/13 12:36:09;;;;;;;16.30;3.92;;;;;;;;;;5064334;27;98181;-77
2023/10/13 12:38:37;;;;;;;20.00;4.88;;;;;;;;;;5060904;27;99257;-75
2023/10/13 12:49:49;;;;;;;13.68;4.25;;;;;;;;;;5046997;27;98269;-76
2023/10/13 12:52:20;;;;;;;15.50;5.25;;;;;;;;;;5045196;27;99733;-76
2023/10/13 12:54:58;;;;;;;18.13;4.43;;;;;;;;;;5059163;27;100270;-77
2023/10/13 12:57:25;;;;;;;16.00;5.85;;;;;;;;;;5059427;27;98267;-77
2023/10/13 12:59:54;;;;;;;17.45;5.30;;;;;;;;;;5060481;27;98494;-77
2023/10/13 13:02:26;;;;;;;11.52;4.95;;;;;;;;;;5053439;27;98830;-77
2023/10/13 13:05:11;;;;;;;10.57;4.70;;;;;;;;;;5049814;27;98222;-78
2023/10/13 13:07:47;;;;;;;11.90;4.30;;;;;;;;;;5060149;27;98545;-81
2023/10/13 13:10:14;;;;;;;18.83;4.47;;;;;;;;;;5052696;27;98109;-83
2023/10/13 13:12:41;;;;;;;24.00;4.25;;;;;;;;;;5058365;27;98714;-77
2023/10/13 13:15:11;;;;;;;18.20;4.93;;;;;;;;;;5046624;27;99956;-77
2023/10/13 13:17:38;;;;;;;21.67;4.75;;;;;;;;;;5057676;27;98922;-77
2023/10/13 13:20:12;;;;;;;14.65;4.68;;;;;;;;;;5054710;27;99823;-75
2023/10/13 13:22:39;;;;;;;14.30;5.03;;;;;;;;;;5053302;27;102168;-76
2023/10/13 13:25:08;;;;;;;21.15;5.80;;;;;;;;;;5066377;27;99014;-76
2023/10/13 13:27:34;;;;;;;14.95;5.43;;;;;;;;;;5060366;27;98945;-77
2023/10/13 13:30:01;;;;;;;11.57;5.40;;;;;;;;;;5066010;27;99227;-77
2023/10/13 13:32:28;;;;;;;12.38;4.97;;;;;;;;;;5048898;27;99396;-77
2023/10/13 13:35:04;;;;;;;11.93;4.70;;;;;;;;;;5051854;27;98938;-76
2023/10/13 13:37:31;;;;;;;10.70;4.47;;;;;;;;;;5060449;27;99519;-76
2023/10/13 13:40:14;;;;;;;16.75;5.13;;;;;;;;;;5065037;27;98680;-76
2023/10/13 13:42:40;;;;;;;11.95;5.47;;;;;;;;;;5052333;27;99687;-76
2023/10/13 13:45:27;;;;;;;11.57;5.40;;;;;;;;;;5050173;27;99076;-76
2023/10/13 13:47:54;;;;;;;18.38;6.05;;;;;;;;;;5050612;27;98530;-76
2023/10/13 13:50:24;;;;;;;24.90;5.63;;;;;;;;;;5050757;27;100930;-77
2023/10/13 13:52:52;;;;;;;8.23;5.18;;;;;;;;;;5062697;27;98871;-77
2023/10/13 13:55:19;;;;;;;13.73;6.00;;;;;;;;;;5069334;27;99001;-77
2023/10/13 13:57:46;;;;;;;9.10;4.65;;;;;;;;;;5070650;27;98705;-75
2023/10/13 14:00:17;;;;;;;11.45;4.85;;;;;;;;;;5050321;27;99307;-77
2023/10/13 14:02:49;;;;;;;19.88;6.53;;;;;;;;;;5055642;27;100261;-77
2023/10/13 14:05:16;;;;;;;15.38;5.80;;;;;;;;;;5070027;27;98127;-76
2023/10/13 14:07:48;;;;;;;13.15;5.80;;;;;;;;;;5067103;27;98724;-78
2023/10/13 14:10:31;;;;;;;15.20;5.40;;;;;;;;;;5063354;27;99263;-77
2023/10/13 14:13:06;;;;;;;24.70;6.78;;;;;;;;;;5073417;27;98096;-76
2023/10/13 14:15:40;;;;;;;20.35;6.00;;;;;;;;;;5060286;27;99820;-77
2023/10/13 14:18:07;;;;;;;12.38;5.97;;;;;;;;;;5058853;27;98103;-77
2023/10/13 14:20:39;;;;;;;20.10;6.28;;;;;;;;;;5046605;27;100204;-78
2023/10/13 14:23:07;;;;;;;;;;;;;;;;;;5089404;27;98966;-76
2023/10/13 14:25:37;;;;;;;14.48;5.68;;;;;;;;;;5078607;27;122879;-80
2023/10/13 14:28:05;;;;;;;16.83;6.63;;;;;;;;;;5069983;27;98418;-76
2023/10/13 14:30:31;;;;;;;23.50;6.32;;;;;;;;;;5068936;27;99095;-77
2023/10/13 14:32:58;;;;;;;22.42;6.03;;;;;;;;;;5069809;27;98248;-77
2023/10/13 14:35:25;;;;;;;19.17;6.15;;;;;;;;;;5052538;27;99703;-76
2023/10/13 14:37:52;;;;;;;11.23;5.97;;;;;;;;;;5048765;27;98302;-77
2023/10/13 14:40:21;;;;;;;11.32;5.97;;;;;;;;;;5073465;27;100033;-78
2023/10/13 14:42:48;;;;;;;15.15;5.93;;;;;;;;;;5062627;27;100482;-76
2023/10/13 14:45:16;;;;;;;15.30;5.95;;;;;;;;;;5048630;27;98365;-78
2023/10/13 14:47:43;;;;;;;9.73;5.15;;;;;;;;;;5048773;27;99529;-77
2023/10/13 14:50:17;;;;;;;18.60;5.50;;;;;;;;;;5048267;27;99884;-76
2023/10/13 14:52:43;;;;;;;20.38;7.32;;;;;;;;;;5049434;27;98178;-78
2023/10/13 14:55:18;;;;;;;18.10;6.47;;;;;;;;;;5048912;27;99105;-77
2023/10/13 14:57:47;;;;;;;14.95;6.57;;;;;;;;;;5051751;27;100392;-77
2023/10/13 15:00:14;;;;;;;19.50;5.93;;;;;;;;;;5048510;27;99659;-78
2023/10/13 15:02:43;;;;;;;26.10;6.85;;;;;;;;;;5048898;27;99810;-78
2023/10/13 15:05:16;;;;;;;13.35;6.22;;;;;;;;;;5048527;27;98317;-79
2023/10/13 15:07:44;;;;;;;13.40;6.05;;;;;;;;;;5048742;27;98785;-78
2023/10/13 15:10:17;;;;;;;14.90;6.63;;;;;;;;;;5048693;27;98973;-77
2023/10/13 15:12:44;;;;;;;20.63;6.30;;;;;;;;;;5048414;27;98426;-78
2023/10/13 15:15:15;;;;;;;21.73;6.80;;;;;;;;;;5048192;27;99635;-77
2023/10/13 15:17:42;;;;;;;11.32;6.97;;;;;;;;;;5048528;27;99967;-78
2023/10/13 15:20:10;;;;;;;16.95;6.78;;;;;;;;;;5051679;27;98573;-78
2023/10/13 15:22:37;;;;;;;15.65;6.95;;;;;;;;;;5048226;27;100168;-78
2023/10/13 15:25:20;;;;;;;17.10;6.45;;;;;;;;;;5051031;27;98545;-78
2023/10/13 15:27:55;;;;;;;18.65;6.03;;;;;;;;;;5069003;27;99370;-77
2023/10/13 15:30:30;;;;;;;15.10;7.13;;;;;;;;;;5068562;27;99177;-77
2023/10/13 15:32:57;;;;;;;14.43;8.20;;;;;;;;;;5068262;27;98214;-77
2023/10/13 15:35:28;;;;;;;17.05;6.57;;;;;;;;;;5068360;27;99402;-77
2023/10/13 15:37:55;;;;;;;13.10;5.63;;;;;;;;;;5068755;27;99273;-76
2023/10/13 15:40:23;;;;;;;11.70;6.20;;;;;;;;;;5067727;27;98643;-78
2023/10/13 15:42:50;;;;;;;16.98;6.18;;;;;;;;;;5057070;27;99765;-77
2023/10/13 15:45:16;;;;;;;15.82;6.53;;;;;;;;;;5047503;27;98514;-77
2023/10/13 15:47:47;;;;;;;14.52;5.82;;;;;;;;;;5047351;27;99216;-77
2023/10/13 15:50:20;;;;;;;11.65;6.70;;;;;;;;;;5047316;27;99756;-76
2023/10/13 15:52:47;;;;;;;15.80;6.43;;;;;;;;;;5051948;27;98090;-76
2023/10/13 15:55:14;;;;;;;11.55;5.72;;;;;;;;;;5051955;27;100142;-76
2023/10/13 15:57:41;;;;;;;8.82;5.93;;;;;;;;;;5048159;27;100270;-77
2023/10/13 16:00:23;;;;;;;16.38;6.47;;;;;;;;;;5053374;27;98407;-77
2023/10/13 16:02:51;;;;;;;11.65;5.93;;;;;;;;;;5053187;27;99316;-77
2023/10/13 16:05:18;;;;;;;16.70;6.55;;;;;;;;;;5054434;27;100170;-77
2023/10/13 16:07:46;;;;;;;11.90;6.05;;;;;;;;;;5050751;27;99461;-78
2023/10/13 16:10:12;;;;;;;14.75;5.45;;;;;;;;;;5041381;27;99995;-77
2023/10/13 16:12:39;;;;;;;19.25;6.22;;;;;;;;;;5050997;27;100090;-77
2023/10/13 16:15:08;;;;;;;13.43;6.63;;;;;;;;;;5044561;27;99737;-76
2023/10/13 16:17:37;;;;;;;15.57;7.68;;;;;;;;;;5047219;27;100074;-76
2023/10/13 16:20:11;;;;;;;20.52;8.15;;;;;;;;;;5043758;27;99871;-77
2023/10/13 16:22:38;;;;;;;15.82;6.43;;;;;;;;;;5045427;27;99815;-77
2023/10/13 16:25:11;;;;;;;22.00;7.15;;;;;;;;;;5062367;27;99743;-78
2023/10/13 16:27:45;;;;;;;13.95;6.60;;;;;;;;;;5054073;27;99815;-77
2023/10/13 16:30:15;;;;;;;15.30;6.75;;;;;;;;;;5050092;27;100270;-77
2023/10/13 16:32:49;;;;;;;13.82;6.72;;;;;;;;;;5055393;27;98155;-77
2023/10/13 16:35:17;;;;;;;25.17;6.93;;;;;;;;;;5053803;27;99498;-77
2023/10/13 16:37:50;;;;;;;18.15;7.20;;;;;;;;;;5087639;27;99291;-77
2023/10/13 16:40:19;;;;;;;22.70;6.05;;;;;;;;;;5071171;27;98712;-77
2023/10/13 16:42:52;;;;;;;15.02;7.63;;;;;;;;;;5067312;27;98715;-76
2023/10/13 16:45:21;;;;;;;17.15;6.65;;;;;;;;;;5068014;27;99510;-77
2023/10/13 16:47:53;;;;;;;22.40;6.63;;;;;;;;;;5070793;27;98214;-76
2023/10/13 16:50:23;;;;;;;13.02;6.97;;;;;;;;;;5063107;27;98898;-76
2023/10/13 16:52:49;;;;;;;17.73;6.70;;;;;;;;;;5062302;27;98919;-78
2023/10/13 16:55:19;;;;;;;19.98;6.65;;;;;;;;;;5082076;27;98196;-78
2023/10/13 16:57:50;;;;;;;10.55;6.10;;;;;;;;;;5069635;27;100353;-77
2023/10/13 17:00:18;;;;;;;11.77;5.93;;;;;;;;;;5067689;27;98309;-76
2023/10/13 17:02:45;;;;;;;10.93;5.78;;;;;;;;;;5059069;27;98202;-77
2023/10/13 17:05:15;;;;;;;15.02;6.68;;;;;;;;;;5066810;27;98933;-77
2023/10/13 17:07:41;;;;;;;16.30;7.15;;;;;;;;;;5076140;27;97959;-73
2023/10/13 17:10:11;;;;;;;15.15;6.28;;;;;;;;;;5075914;27;99177;-75
2023/10/13 17:12:37;;;;;;;25.65;8.30;;;;;;;;;;5075948;27;98165;-75
2023/10/13 17:15:13;;;;;;;23.40;6.95;;;;;;;;;;5086868;27;98239;-75
2023/10/13 17:17:42;;;;;;;18.10;6.05;;;;;;;;;;5070318;27;99084;-75
2023/10/13 17:20:09;;;;;;;16.33;7.95;;;;;;;;;;5066518;27;98858;-74
2023/10/13 17:22:40;;;;;;;17.02;7.47;;;;;;;;;;5052401;27;99874;-75
2023/10/13 17:25:07;;;;;;;17.55;7.30;;;;;;;;;;5052691;27;98790;-74
2023/10/13 17:27:37;;;;;;;15.35;6.88;;;;;;;;;;5055520;27;99134;-75
2023/10/13 17:30:05;;;;;;;18.85;8.15;;;;;;;;;;5047517;27;99312;-74
2023/10/13 17:32:32;;;;;;;20.27;7.10;;;;;;;;;;5057040;27;99097;-74
2023/10/13 17:35:02;;;;;;;18.35;8.02;;;;;;;;;;5051740;27;98848;-75
2023/10/13 17:37:37;;;;;;;19.67;6.90;;;;;;;;;;5051557;27;99408;-75
2023/10/13 17:40:03;;;;;;;16.77;7.15;;;;;;;;;;5050480;27;98960;-75
2023/10/13 17:42:35;;;;;;;13.52;7.30;;;;;;;;;;5047388;27;98916;-74
2023/10/13 17:45:02;;;;;;;14.17;7.67;;;;;;;;;;5051118;27;100158;-75
2023/10/13 17:47:28;;;;;;;12.40;7.38;;;;;;;;;;5054599;27;98931;-75
2023/10/13 17:49:55;;;;;;;18.08;7.47;;;;;;;;;;5053217;27;99687;-75
2023/10/13 17:52:21;;;;;;;14.57;7.90;;;;;;;;;;5053592;27;99945;-75
2023/10/13 17:54:48;;;;;;;17.75;7.97;;;;;;;;;;5052693;27;99079;-76
2023/10/13 17:57:16;;;;;;;16.77;8.65;;;;;;;;;;5052270;27;98872;-75